createdAt,value
2022-08-28T00:02:06.838Z,102100.47
2022-08-28T00:04:34.564Z,102103.63
2022-08-28T00:07:02.170Z,102109.03
2022-08-28T00:09:31.094Z,102101.72
2022-08-28T00:11:58.684Z,102100.34
2022-08-28T00:14:26.691Z,102096.69
2022-08-28T00:16:54.794Z,102106.59
2022-08-28T00:19:24.025Z,102100.44
2022-08-28T00:21:51.835Z,102108.03
2022-08-28T00:24:19.445Z,102099.06
2022-08-28T00:27:05.882Z,102101.34
2022-08-28T00:29:33.413Z,102100.84
2022-08-28T00:32:01.306Z,102108.44
2022-08-28T00:34:33.105Z,102106.25
2022-08-28T00:37:01.561Z,102100.06
2022-08-28T00:39:29.135Z,102095.88
2022-08-28T00:41:58.831Z,102099.31
2022-08-28T00:44:27.600Z,102094.28
2022-08-28T00:46:55.791Z,102101.38
2022-08-28T00:49:24.519Z,102092.38
2022-08-28T00:52:12.725Z,102089.91
2022-08-28T00:54:41.611Z,102095.84
2022-08-28T00:57:21.518Z,102095.31
2022-08-28T00:59:54.598Z,102094.78
2022-08-28T01:02:22.359Z,102095.06
2022-08-28T01:04:50.698Z,102103.50
2022-08-28T01:07:18.420Z,102101.31
2022-08-28T01:09:48.363Z,102105.25
2022-08-28T01:12:18.929Z,102100.78
2022-08-28T01:14:50.012Z,102101.06
2022-08-28T01:17:19.209Z,102099.41
2022-08-28T01:19:48.166Z,102101.38
2022-08-28T01:22:21.210Z,102098.03
2022-08-28T01:24:50.774Z,102100.84
2022-08-28T01:27:18.724Z,102099.16
2022-08-28T01:29:47.975Z,102102.31
2022-08-28T01:32:26.748Z,102096.16
2022-08-28T01:34:54.290Z,102094.78
2022-08-28T01:37:21.930Z,102102.69
2022-08-28T01:39:51.233Z,102098.50
2022-08-28T01:42:19.024Z,102099.94
2022-08-28T01:44:47.488Z,102097.72
2022-08-28T01:47:15.063Z,102097.19
2022-08-28T01:49:42.667Z,102093.84
2022-08-28T01:52:10.458Z,102096.13
2022-08-28T01:54:39.813Z,102104.03
2022-08-28T01:57:09.701Z,102093.34
2022-08-28T01:59:37.243Z,102090.84
2022-08-28T02:02:05.703Z,102093.66
2022-08-28T02:04:33.785Z,102087.50
2022-08-28T02:07:01.328Z,102091.44
2022-08-28T02:09:28.990Z,102097.38
2022-08-28T02:11:57.321Z,102100.47
2022-08-28T02:14:26.314Z,102095.16
2022-08-28T02:16:53.959Z,102096.59
2022-08-28T02:19:22.360Z,102098.06
2022-08-28T02:21:50.104Z,102088.00
2022-08-28T02:24:18.104Z,102094.78
2022-08-28T02:26:45.755Z,102094.53
2022-08-28T02:29:13.597Z,102095.97
2022-08-28T02:31:42.500Z,102096.25
2022-08-28T02:34:11.436Z,102098.53
2022-08-28T02:36:40.887Z,102104.78
2022-08-28T02:39:08.407Z,102107.06
2022-08-28T02:41:35.936Z,102111.00
2022-08-28T02:44:03.676Z,102101.72
2022-08-28T02:46:31.585Z,102107.66
2022-08-28T02:49:00.633Z,102104.28
2022-08-28T02:51:31.200Z,102112.72
2022-08-28T02:53:58.719Z,102107.41
2022-08-28T02:56:26.288Z,102106.88
2022-08-28T02:58:53.937Z,102107.16
2022-08-28T03:01:24.288Z,102111.94
2022-08-28T03:03:52.006Z,102114.22
2022-08-28T03:06:20.936Z,102114.50
2022-08-28T03:08:49.061Z,102110.84
2022-08-28T03:11:16.656Z,102115.94
2022-08-28T03:13:44.210Z,102111.44
2022-08-28T03:16:11.797Z,102112.06
2022-08-28T03:18:39.537Z,102106.22
2022-08-28T03:21:07.272Z,102107.34
2022-08-28T03:23:36.474Z,102113.25
2022-08-28T03:26:05.942Z,102113.25
2022-08-28T03:28:34.578Z,102116.38
2022-08-28T03:31:02.480Z,102120.31
2022-08-28T03:33:30.111Z,102116.94
2022-08-28T03:35:57.845Z,102117.25
2022-08-28T03:38:25.887Z,102116.72
2022-08-28T03:40:55.432Z,102115.88
2022-08-28T03:43:24.914Z,102115.03
2022-08-28T03:45:58.075Z,102115.03
2022-08-28T03:48:26.782Z,102125.13
2022-08-28T03:50:54.714Z,102128.78
2022-08-28T03:53:23.484Z,102127.09
2022-08-28T03:55:51.077Z,102128.25
2022-08-28T03:58:20.226Z,102130.22
2022-08-28T04:00:47.820Z,102131.88
2022-08-28T04:03:15.369Z,102131.38
2022-08-28T04:05:43.587Z,102128.88
2022-08-28T04:08:12.688Z,102133.34
2022-08-28T04:10:40.688Z,102132.50
2022-08-28T04:13:08.233Z,102130.00
2022-08-28T04:15:37.137Z,102133.09
2022-08-28T04:18:04.717Z,102131.41
2022-08-28T04:20:32.248Z,102134.22
2022-08-28T04:23:00.453Z,102133.69
2022-08-28T04:25:28.122Z,102137.63
2022-08-28T04:27:55.646Z,102145.81
2022-08-28T04:30:23.235Z,102147.78
2022-08-28T04:32:52.138Z,102150.03
2022-08-28T04:35:19.724Z,102151.16
2022-08-28T04:37:47.281Z,102150.03
2022-08-28T04:40:15.987Z,102155.91
2022-08-28T04:42:45.022Z,102148.88
2022-08-28T04:45:13.518Z,102148.56
2022-08-28T04:47:41.206Z,102154.44
2022-08-28T04:50:11.828Z,102154.66
2022-08-28T04:52:39.372Z,102167.28
2022-08-28T04:55:07.536Z,102168.13
2022-08-28T04:57:36.513Z,102173.75
2022-08-28T05:00:05.376Z,102162.50
2022-08-28T05:02:32.974Z,102174.59
2022-08-28T05:05:00.573Z,102178.78
2022-08-28T05:07:29.712Z,102186.34
2022-08-28T05:09:57.248Z,102175.03
2022-08-28T05:12:25.497Z,102176.66
2022-08-28T05:14:53.034Z,102180.56
2022-08-28T05:17:20.563Z,102177.44
2022-08-28T05:19:48.474Z,102176.00
2022-08-28T05:22:16.382Z,102178.53
2022-08-28T05:24:45.253Z,102172.06
2022-08-28T05:27:12.856Z,102174.28
2022-08-28T05:29:40.411Z,102177.66
2022-08-28T05:32:08.070Z,102175.09
2022-08-28T05:34:35.602Z,102170.50
2022-08-28T05:37:03.203Z,102175.00
2022-08-28T05:39:30.709Z,102175.84
2022-08-28T05:41:59.588Z,102174.41
2022-08-28T05:44:27.243Z,102174.09
2022-08-28T05:46:55.731Z,102179.16
2022-08-28T05:49:23.580Z,102174.91
2022-08-28T05:51:52.361Z,102179.09
2022-08-28T05:54:19.969Z,102174.81
2022-08-28T05:56:47.828Z,102181.81
2022-08-28T05:59:16.900Z,102183.50
2022-08-28T06:01:45.374Z,102179.25
2022-08-28T06:04:14.498Z,102183.69
2022-08-28T06:06:42.903Z,102184.50
2022-08-28T06:09:11.417Z,102183.56
2022-08-28T06:11:44.864Z,102187.47
2022-08-28T06:14:15.136Z,102192.19
2022-08-28T06:16:46.173Z,102193.28
2022-08-28T06:19:14.302Z,102189.56
2022-08-28T06:21:42.383Z,102190.31
2022-08-28T06:24:10.895Z,102194.75
2022-08-28T06:26:38.486Z,102185.94
2022-08-28T06:29:07.688Z,102196.78
2022-08-28T06:31:35.609Z,102192.78
2022-08-28T06:34:04.782Z,102190.97
2022-08-28T06:36:34.035Z,102188.56
2022-08-28T06:39:02.435Z,102199.16
2022-08-28T06:41:32.032Z,102198.47
2022-08-28T06:43:59.802Z,102197.16
2022-08-28T06:46:30.292Z,102199.53
2022-08-28T06:48:57.803Z,102204.06
2022-08-28T06:51:26.723Z,102202.66
2022-08-28T06:53:54.211Z,102204.28
2022-08-28T06:56:26.896Z,102200.31
2022-08-28T06:58:55.678Z,102199.91
2022-08-28T07:01:24.440Z,102194.69
2022-08-28T07:03:53.067Z,102202.34
2022-08-28T07:06:21.499Z,102204.25
2022-08-28T07:08:50.938Z,102206.66
2022-08-28T07:11:20.913Z,102199.34
2022-08-28T07:13:49.028Z,102205.38
2022-08-28T07:16:18.033Z,102202.06
2022-08-28T07:18:46.207Z,102204.31
2022-08-28T07:21:14.626Z,102203.72
2022-08-28T07:23:44.041Z,102211.28
2022-08-28T07:26:14.363Z,102201.59
2022-08-28T07:28:42.096Z,102210.13
2022-08-28T07:31:10.993Z,102212.34
2022-08-28T07:33:39.529Z,102225.31
2022-08-28T07:36:07.965Z,102224.78
2022-08-28T07:38:43.658Z,102235.47
2022-08-28T07:41:16.622Z,102233.38
2022-08-28T07:43:58.106Z,102233.59
2022-08-28T07:46:25.642Z,102238.50
2022-08-28T07:48:53.824Z,102238.19
2022-08-28T07:51:21.436Z,102238.28
2022-08-28T07:53:48.953Z,102239.31
2022-08-28T07:56:17.953Z,102234.72
2022-08-28T07:58:45.525Z,102230.34
2022-08-28T08:01:13.134Z,102246.44
2022-08-28T08:03:40.804Z,102239.13
2022-08-28T08:06:08.584Z,102240.88
2022-08-28T08:08:36.552Z,102238.81
2022-08-28T08:11:05.549Z,102237.88
2022-08-28T08:13:35.155Z,102234.28
2022-08-28T08:16:03.951Z,102240.69
2022-08-28T08:18:31.924Z,102247.22
2022-08-28T08:20:59.440Z,102243.94
2022-08-28T08:23:27.023Z,102256.84
2022-08-28T08:25:55.741Z,102259.09
2022-08-28T08:28:23.312Z,102258.69
2022-08-28T08:30:52.301Z,102254.09
2022-08-28T08:33:20.236Z,102259.16
2022-08-28T08:35:47.765Z,102252.50
2022-08-28T08:38:15.383Z,102258.81
2022-08-28T08:40:43.015Z,102255.06
2022-08-28T08:43:10.961Z,102257.69
2022-08-28T08:45:39.255Z,102254.50
2022-08-28T08:48:22.741Z,102256.22
2022-08-28T08:50:50.396Z,102251.91
2022-08-28T08:53:24.264Z,102248.72
2022-08-28T08:55:53.556Z,102252.00
2022-08-28T08:58:25.431Z,102252.25
2022-08-28T09:00:59.654Z,102256.66
2022-08-28T09:03:33.408Z,102253.06
2022-08-28T09:06:03.561Z,102252.66
2022-08-28T09:08:32.885Z,102258.28
2022-08-28T09:11:03.199Z,102254.88
2022-08-28T09:13:35.037Z,102255.56
2022-08-28T09:16:06.449Z,102254.31
2022-08-28T09:18:36.282Z,102250.56
2022-08-28T09:21:06.682Z,102249.00
2022-08-28T09:23:34.438Z,102247.19
2022-08-28T09:26:03.457Z,102256.75
2022-08-28T09:28:31.800Z,102259.69
2022-08-28T09:31:02.154Z,102258.50
2022-08-28T09:33:31.560Z,102264.75
2022-08-28T09:36:21.077Z,102266.25
2022-08-28T09:39:03.216Z,102261.59
2022-08-28T09:41:48.304Z,102257.13
2022-08-28T09:44:15.876Z,102261.22
2022-08-28T09:46:47.912Z,102266.84
2022-08-28T09:49:15.821Z,102267.56
2022-08-28T09:51:43.523Z,102261.69
2022-08-28T09:54:17.016Z,102271.84
2022-08-28T09:56:45.700Z,102272.28
2022-08-28T09:59:14.384Z,102263.28
2022-08-28T10:01:52.547Z,102268.16
2022-08-28T10:04:28.960Z,102264.53
2022-08-28T10:06:58.156Z,102275.53
2022-08-28T10:09:30.236Z,102268.97
2022-08-28T10:12:01.077Z,102268.63
2022-08-28T10:14:38.306Z,102272.88
2022-08-28T10:17:14.145Z,102272.34
2022-08-28T10:19:46.454Z,102273.16
2022-08-28T10:22:22.369Z,102257.81
2022-08-28T10:24:57.298Z,102265.81
2022-08-28T10:27:32.694Z,102264.06
2022-08-28T10:30:08.906Z,102268.50
2022-08-28T10:32:48.940Z,102265.00
2022-08-28T10:35:19.119Z,102261.50
2022-08-28T10:37:53.133Z,102259.28
2022-08-28T10:40:25.545Z,102268.06
2022-08-28T10:42:57.496Z,102262.50
2022-08-28T10:45:26.326Z,102261.28
2022-08-28T10:47:58.086Z,102269.50
2022-08-28T10:50:27.863Z,102265.81
2022-08-28T10:52:58.233Z,102262.22
2022-08-28T10:55:32.336Z,102271.69
2022-08-28T10:58:02.442Z,102265.06
2022-08-28T11:00:30.778Z,102264.91
2022-08-28T11:03:00.440Z,102265.41
2022-08-28T11:05:30.438Z,102265.53
2022-08-28T11:07:59.904Z,102273.50
2022-08-28T11:10:42.658Z,102272.41
2022-08-28T11:13:12.565Z,102270.44
2022-08-28T11:15:51.144Z,102279.09
2022-08-28T11:18:37.887Z,102279.47
2022-08-28T11:21:10.952Z,102276.47
2022-08-28T11:23:43.442Z,102280.22
2022-08-28T11:26:13.889Z,102286.03
2022-08-28T11:28:45.505Z,102281.19
2022-08-28T11:31:33.848Z,102283.47
2022-08-28T11:34:02.684Z,102285.13
2022-08-28T11:36:48.693Z,102280.84
2022-08-28T11:39:21.045Z,102288.31
2022-08-28T11:42:07.364Z,102286.88
2022-08-28T11:44:43.535Z,102283.06
2022-08-28T11:47:29.848Z,102292.19
2022-08-28T11:50:04.093Z,102290.47
2022-08-28T11:52:37.732Z,102289.56
2022-08-28T11:55:11.619Z,102290.69
2022-08-28T11:57:49.737Z,102288.88
2022-08-28T12:00:24.292Z,102288.69
2022-08-28T12:03:00.616Z,102281.75
2022-08-28T12:05:40.932Z,102285.53
2022-08-28T12:08:12.056Z,102283.72
2022-08-28T12:10:57.847Z,102288.50
2022-08-28T12:13:44.517Z,102289.56
2022-08-28T12:16:15.782Z,102289.09
2022-08-28T12:19:01.977Z,102276.69
2022-08-28T12:21:30.063Z,102276.69
2022-08-28T12:24:02.117Z,102282.75
2022-08-28T12:26:35.996Z,102275.06
2022-08-28T12:29:04.373Z,102278.63
2022-08-28T12:32:03.957Z,102275.53
2022-08-28T12:34:35.932Z,102279.25
2022-08-28T12:37:05.394Z,102275.50
2022-08-28T12:39:34.408Z,102277.06
2022-08-28T12:42:02.853Z,102277.50
2022-08-28T12:44:31.975Z,102276.53
2022-08-28T12:47:01.230Z,102279.94
2022-08-28T12:49:32.472Z,102276.44
2022-08-28T12:52:14.529Z,102274.41
2022-08-28T12:54:45.164Z,102271.44
2022-08-28T12:57:14.101Z,102281.50
2022-08-28T12:59:42.538Z,102276.50
2022-08-28T13:02:14.209Z,102271.84
2022-08-28T13:04:46.697Z,102282.06
2022-08-28T13:07:16.024Z,102272.56
2022-08-28T13:09:47.139Z,102279.31
2022-08-28T13:12:19.586Z,102285.13
2022-08-28T13:14:48.450Z,102280.78
2022-08-28T13:17:37.309Z,102273.72
2022-08-28T13:20:06.648Z,102278.19
2022-08-28T13:22:39.680Z,102283.16
2022-08-28T13:25:08.078Z,102280.41
2022-08-28T13:27:35.788Z,102280.50
2022-08-28T13:30:09.134Z,102282.16
2022-08-28T13:32:39.294Z,102280.31
2022-08-28T13:35:16.629Z,102273.22
2022-08-28T13:37:46.393Z,102283.25
2022-08-28T13:40:38.110Z,102282.69
2022-08-28T13:43:03.792Z,102286.00
2022-08-28T13:45:42.681Z,102282.13
2022-08-28T13:48:12.160Z,102272.53
2022-08-28T13:50:41.619Z,102275.75
2022-08-28T13:53:09.435Z,102276.34
2022-08-28T13:55:37.779Z,102265.06
2022-08-28T13:58:05.366Z,102262.22
2022-08-28T14:00:35.953Z,102270.78
2022-08-28T14:03:21.381Z,102272.34
2022-08-28T14:05:50.308Z,102272.09
2022-08-28T14:08:17.854Z,102263.59
2022-08-28T14:10:46.152Z,102271.13
2022-08-28T14:13:13.990Z,102261.44
2022-08-28T14:15:41.689Z,102257.94
2022-08-28T14:18:09.262Z,102269.31
2022-08-28T14:20:38.705Z,102262.66
2022-08-28T14:23:07.588Z,102258.59
2022-08-28T14:25:41.592Z,102261.63
2022-08-28T14:28:09.165Z,102267.75
2022-08-28T14:30:36.758Z,102265.69
2022-08-28T14:33:04.303Z,102260.63
2022-08-28T14:35:32.061Z,102267.44
2022-08-28T14:37:59.728Z,102254.59
2022-08-28T14:40:28.694Z,102253.69
2022-08-28T14:42:56.318Z,102254.44
2022-08-28T14:45:23.876Z,102252.09
2022-08-28T14:47:51.456Z,102239.47
2022-08-28T14:50:19.083Z,102250.00
2022-08-28T14:52:46.806Z,102256.81
2022-08-28T14:55:18.717Z,102252.34
2022-08-28T14:57:48.105Z,102244.31
2022-08-28T15:00:18.970Z,102245.22
2022-08-28T15:02:46.567Z,102243.47
2022-08-28T15:05:15.479Z,102244.47
2022-08-28T15:07:43.021Z,102244.22
2022-08-28T15:10:11.537Z,102253.16
2022-08-28T15:12:39.269Z,102243.56
2022-08-28T15:15:12.148Z,102250.22
2022-08-28T15:17:39.753Z,102244.28
2022-08-28T15:20:07.783Z,102248.34
2022-08-28T15:22:35.412Z,102246.56
2022-08-28T15:25:03.289Z,102253.91
2022-08-28T15:27:30.831Z,102248.09
2022-08-28T15:29:58.438Z,102248.34
2022-08-28T15:32:27.336Z,102250.75
2022-08-28T15:34:54.870Z,102249.81
2022-08-28T15:37:22.483Z,102248.97
2022-08-28T15:40:07.771Z,102253.72
2022-08-28T15:42:35.346Z,102251.22
2022-08-28T15:45:02.886Z,102254.44
2022-08-28T15:47:31.940Z,102247.75
2022-08-28T15:49:59.468Z,102248.09
2022-08-28T15:52:27.705Z,102248.09
2022-08-28T15:54:55.337Z,102243.59
2022-08-28T15:57:23.471Z,102240.66
2022-08-28T15:59:51.326Z,102241.38
2022-08-28T16:02:20.013Z,102233.28
2022-08-28T16:04:49.249Z,102239.81
2022-08-28T16:07:17.260Z,102230.31
2022-08-28T16:09:44.791Z,102229.84
2022-08-28T16:12:12.356Z,102235.66
2022-08-28T16:14:39.963Z,102236.75
2022-08-28T16:17:11.063Z,102240.66
2022-08-28T16:19:39.005Z,102235.06
2022-08-28T16:22:08.043Z,102237.69
2022-08-28T16:24:35.825Z,102238.63
2022-08-28T16:27:03.451Z,102234.94
2022-08-28T16:29:31.037Z,102236.19
2022-08-28T16:31:59.050Z,102237.38
2022-08-28T16:34:31.211Z,102235.91
2022-08-28T16:36:59.144Z,102232.09
2022-08-28T16:39:28.401Z,102234.38
2022-08-28T16:41:55.977Z,102238.13
2022-08-28T16:44:25.388Z,102233.59
2022-08-28T16:46:53.127Z,102233.88
2022-08-28T16:49:20.910Z,102229.13
2022-08-28T16:51:48.496Z,102235.81
2022-08-28T16:54:16.283Z,102244.81
2022-08-28T16:56:45.677Z,102245.22
2022-08-28T16:59:16.368Z,102248.13
2022-08-28T17:01:44.155Z,102243.47
2022-08-28T17:04:12.441Z,102242.34
2022-08-28T17:06:40.030Z,102234.34
2022-08-28T17:09:07.703Z,102233.69
2022-08-28T17:11:35.602Z,102240.53
2022-08-28T17:14:04.526Z,102239.22
2022-08-28T17:16:32.235Z,102238.44
2022-08-28T17:19:00.110Z,102241.81
2022-08-28T17:21:45.039Z,102245.03
2022-08-28T17:24:13.310Z,102232.56
2022-08-28T17:26:41.888Z,102237.78
2022-08-28T17:29:11.275Z,102237.47
2022-08-28T17:31:39.318Z,102240.84
2022-08-28T17:34:07.353Z,102235.69
2022-08-28T17:36:36.564Z,102230.50
2022-08-28T17:39:05.239Z,102246.03
2022-08-28T17:41:33.752Z,102237.31
2022-08-28T17:44:01.349Z,102244.78
2022-08-28T17:46:35.287Z,102247.44
2022-08-28T17:49:05.239Z,102242.41
2022-08-28T17:51:42.823Z,102250.03
2022-08-28T17:54:10.846Z,102247.19
2022-08-28T17:56:38.442Z,102246.66
2022-08-28T17:59:05.976Z,102247.78
2022-08-28T18:01:34.993Z,102250.53
2022-08-28T18:04:02.797Z,102250.16
2022-08-28T18:06:32.136Z,102251.16
2022-08-28T18:09:00.422Z,102254.44
2022-08-28T18:11:28.517Z,102252.38
2022-08-28T18:13:56.189Z,102239.03
2022-08-28T18:16:27.639Z,102238.66
2022-08-28T18:18:59.403Z,102235.44
2022-08-28T18:21:27.008Z,102243.56
2022-08-28T18:23:54.666Z,102251.34
2022-08-28T18:26:22.200Z,102238.78
2022-08-28T18:28:49.736Z,102244.91
2022-08-28T18:31:17.650Z,102243.34
2022-08-28T18:33:45.281Z,102240.66
2022-08-28T18:36:15.167Z,102245.91
2022-08-28T18:38:43.041Z,102249.47
2022-08-28T18:41:11.995Z,102242.09
2022-08-28T18:43:39.628Z,102249.63
2022-08-28T18:46:08.766Z,102257.69
2022-08-28T18:48:37.077Z,102254.47
2022-08-28T18:51:06.175Z,102256.56
2022-08-28T18:53:35.582Z,102260.34
2022-08-28T18:56:03.897Z,102266.44
2022-08-28T18:58:32.151Z,102267.69
2022-08-28T19:01:01.367Z,102266.94
2022-08-28T19:03:28.988Z,102271.56
2022-08-28T19:05:57.274Z,102271.16
2022-08-28T19:08:25.269Z,102271.25
2022-08-28T19:10:54.875Z,102279.81
2022-08-28T19:13:22.461Z,102276.53
2022-08-28T19:15:51.618Z,102287.09
2022-08-28T19:18:19.766Z,102277.88
2022-08-28T19:20:47.308Z,102280.78
2022-08-28T19:23:17.623Z,102280.38
2022-08-28T19:25:46.027Z,102284.97
2022-08-28T19:28:15.071Z,102279.09
2022-08-28T19:30:42.702Z,102286.28
2022-08-28T19:33:12.518Z,102292.34
2022-08-28T19:35:40.169Z,102287.59
2022-08-28T19:38:07.816Z,102286.53
2022-08-28T19:40:35.624Z,102289.13
2022-08-28T19:43:03.280Z,102293.75
2022-08-28T19:45:35.256Z,102289.84
2022-08-28T19:48:03.205Z,102290.78
2022-08-28T19:50:30.806Z,102293.38
2022-08-28T19:52:58.461Z,102302.72
2022-08-28T19:55:27.111Z,102300.56
2022-08-28T19:57:54.698Z,102303.97
2022-08-28T20:00:24.141Z,102300.09
2022-08-28T20:02:53.137Z,102296.19
2022-08-28T20:05:21.255Z,102304.38
2022-08-28T20:07:48.886Z,102303.00
2022-08-28T20:10:17.148Z,102306.78
2022-08-28T20:12:48.663Z,102303.19
2022-08-28T20:15:17.313Z,102307.75
2022-08-28T20:17:49.608Z,102313.13
2022-08-28T20:20:20.030Z,102305.63
2022-08-28T20:22:47.603Z,102305.38
2022-08-28T20:25:15.593Z,102305.16
2022-08-28T20:27:43.171Z,102312.22
2022-08-28T20:30:11.519Z,102307.19
2022-08-28T20:32:41.125Z,102308.63
2022-08-28T20:35:10.833Z,102307.56
2022-08-28T20:37:44.795Z,102308.19
2022-08-28T20:40:13.774Z,102300.31
2022-08-28T20:42:41.372Z,102312.19
2022-08-28T20:45:09.137Z,102308.28
2022-08-28T20:47:36.754Z,102308.03
2022-08-28T20:50:04.577Z,102303.88
2022-08-28T20:52:32.096Z,102308.97
2022-08-28T20:55:01.038Z,102305.91
2022-08-28T20:57:28.617Z,102304.53
2022-08-28T20:59:56.208Z,102297.81
2022-08-28T21:02:24.724Z,102306.03
2022-08-28T21:04:52.515Z,102305.78
2022-08-28T21:07:21.012Z,102309.75
2022-08-28T21:10:06.137Z,102316.28
2022-08-28T21:12:36.629Z,102310.09
2022-08-28T21:15:05.031Z,102308.44
2022-08-28T21:17:32.581Z,102305.06
2022-08-28T21:20:01.189Z,102304.78
2022-08-28T21:22:31.430Z,102301.66
2022-08-28T21:24:59.134Z,102305.84
2022-08-28T21:27:26.773Z,102308.59
2022-08-28T21:29:58.007Z,102306.31
2022-08-28T21:32:25.641Z,102308.53
2022-08-28T21:34:54.516Z,102301.47
2022-08-28T21:37:22.180Z,102315.78
2022-08-28T21:39:49.842Z,102319.16
2022-08-28T21:42:17.487Z,102321.38
2022-08-28T21:44:51.559Z,102315.94
2022-08-28T21:47:21.321Z,102313.38
2022-08-28T21:49:49.006Z,102312.47
2022-08-28T21:52:16.575Z,102310.75
2022-08-28T21:54:44.120Z,102309.31
2022-08-28T21:57:11.660Z,102318.84
2022-08-28T21:59:39.190Z,102315.41
2022-08-28T22:02:06.999Z,102315.94
2022-08-28T22:04:36.609Z,102311.97
2022-08-28T22:07:04.155Z,102314.50
2022-08-28T22:09:32.020Z,102317.31
2022-08-28T22:11:59.551Z,102320.13
2022-08-28T22:14:28.494Z,102320.97
2022-08-28T22:16:56.124Z,102326.31
2022-08-28T22:19:23.727Z,102326.84
2022-08-28T22:22:10.023Z,102326.53
2022-08-28T22:24:37.976Z,102325.41
2022-08-28T22:27:05.814Z,102337.22
2022-08-28T22:29:36.499Z,102337.75
2022-08-28T22:32:04.254Z,102334.63
2022-08-28T22:34:32.048Z,102333.16
2022-08-28T22:37:00.946Z,102325.56
2022-08-28T22:39:28.458Z,102330.88
2022-08-28T22:41:55.974Z,102321.28
2022-08-28T22:44:23.527Z,102332.56
2022-08-28T22:46:51.026Z,102329.75
2022-08-28T22:49:18.585Z,102319.31
2022-08-28T22:51:46.132Z,102319.00
2022-08-28T22:54:15.050Z,102326.31
2022-08-28T22:56:42.686Z,102328.00
2022-08-28T22:59:10.499Z,102320.09
2022-08-28T23:01:38.085Z,102320.09
2022-08-28T23:04:05.992Z,102313.00
2022-08-28T23:06:33.602Z,102315.81
2022-08-28T23:09:01.223Z,102305.09
2022-08-28T23:11:30.201Z,102308.75
2022-08-28T23:13:57.782Z,102303.66
2022-08-28T23:16:25.403Z,102306.16
2022-08-28T23:19:08.593Z,102306.47
2022-08-28T23:21:40.829Z,102305.31
2022-08-28T23:24:11.838Z,102316.59
2022-08-28T23:26:40.726Z,102305.31
2022-08-28T23:29:08.507Z,102308.16
2022-08-28T23:31:36.140Z,102310.63
2022-08-28T23:34:03.751Z,102301.88
2022-08-28T23:36:35.355Z,102295.41
2022-08-28T23:39:03.379Z,102294.25
2022-08-28T23:41:31.535Z,102298.75
2022-08-28T23:44:01.685Z,102305.22
2022-08-28T23:46:31.771Z,102297.34
2022-08-28T23:48:59.319Z,102299.00
2022-08-28T23:51:27.145Z,102289.72
2022-08-28T23:53:55.787Z,102293.38
2022-08-28T23:56:28.115Z,102298.19
2022-08-28T23:58:55.944Z,102295.34
